createdAt,value
2022-11-02T00:00:29.896Z,26.20
2022-11-02T00:03:04.050Z,26.20
2022-11-02T00:05:37.973Z,26.20
2022-11-02T00:08:11.577Z,26.20
2022-11-02T00:10:46.786Z,26.20
2022-11-02T00:13:26.523Z,26.20
2022-11-02T00:16:02.492Z,26.20
2022-11-02T00:18:37.074Z,26.20
2022-11-02T00:21:10.736Z,26.20
2022-11-02T00:23:44.613Z,26.20
2022-11-02T00:26:19.981Z,26.20
2022-11-02T00:28:54.177Z,26.20
2022-11-02T00:31:27.839Z,26.20
2022-11-02T00:34:01.443Z,26.20
2022-11-02T00:36:35.529Z,26.20
2022-11-02T00:39:09.298Z,26.20
2022-11-02T00:41:44.455Z,26.20
2022-11-02T00:44:18.519Z,26.20
2022-11-02T00:46:53.137Z,26.20
2022-11-02T00:49:26.800Z,26.20
2022-11-02T00:52:00.609Z,26.20
2022-11-02T00:54:35.593Z,26.20
2022-11-02T00:57:10.608Z,26.20
2022-11-02T00:59:44.635Z,26.20
2022-11-02T01:02:18.415Z,26.20
2022-11-02T01:04:52.183Z,26.20
2022-11-02T01:07:25.892Z,26.20
2022-11-02T01:09:59.518Z,26.20
2022-11-02T01:12:34.599Z,26.20
2022-11-02T01:15:10.519Z,26.20
2022-11-02T01:17:44.829Z,26.20
2022-11-02T01:20:18.418Z,26.20
2022-11-02T01:22:52.020Z,26.20
2022-11-02T01:25:25.628Z,26.20
2022-11-02T01:28:00.641Z,26.20
2022-11-02T01:30:34.462Z,26.20
2022-11-02T01:33:08.136Z,26.30
2022-11-02T01:35:41.844Z,26.20
2022-11-02T01:38:15.384Z,26.20
2022-11-02T01:40:49.150Z,26.20
2022-11-02T01:43:28.143Z,26.20
2022-11-02T01:46:03.111Z,26.20
2022-11-02T01:48:38.999Z,26.20
2022-11-02T01:51:13.983Z,26.20
2022-11-02T01:53:49.392Z,26.20
2022-11-02T01:59:05.571Z,26.20
2022-11-02T02:01:40.424Z,26.30
2022-11-02T02:04:14.427Z,26.20
2022-11-02T02:06:48.898Z,26.30
2022-11-02T02:09:23.112Z,26.20
2022-11-02T02:11:56.940Z,26.30
2022-11-02T02:14:31.985Z,26.30
2022-11-02T02:17:09.817Z,26.30
2022-11-02T02:19:48.286Z,26.30
2022-11-02T02:22:40.596Z,26.20
2022-11-02T02:25:24.674Z,26.30
2022-11-02T02:28:07.704Z,26.30
2022-11-02T02:30:44.926Z,26.30
2022-11-02T02:33:22.599Z,26.30
2022-11-02T02:36:00.000Z,26.30
2022-11-02T02:38:35.335Z,26.30
2022-11-02T02:41:12.122Z,26.30
2022-11-02T02:43:50.671Z,26.20
2022-11-02T02:46:27.025Z,26.30
2022-11-02T02:49:00.773Z,26.30
2022-11-02T02:51:35.093Z,26.30
2022-11-02T02:54:11.060Z,26.30
2022-11-02T02:59:24.932Z,26.30
2022-11-02T03:01:59.345Z,26.30
2022-11-02T03:04:32.922Z,26.30
2022-11-02T03:07:06.549Z,26.30
2022-11-02T03:09:42.280Z,26.30
2022-11-02T03:12:22.923Z,26.30
2022-11-02T03:15:07.290Z,26.30
2022-11-02T03:17:46.679Z,26.30
2022-11-02T03:20:24.128Z,26.30
2022-11-02T03:23:04.599Z,26.30
2022-11-02T03:25:41.093Z,26.30
2022-11-02T03:28:17.990Z,26.30
2022-11-02T03:30:56.069Z,26.30
2022-11-02T03:33:32.290Z,26.30
2022-11-02T03:36:09.748Z,26.30
2022-11-02T03:38:45.776Z,26.30
2022-11-02T03:41:22.190Z,26.30
2022-11-02T03:43:59.836Z,26.30
2022-11-02T03:46:36.443Z,26.30
2022-11-02T03:49:13.496Z,26.30
2022-11-02T03:51:47.744Z,26.30
2022-11-02T03:54:23.959Z,26.30
2022-11-02T03:56:58.616Z,26.30
2022-11-02T03:59:32.808Z,26.30
2022-11-02T04:02:11.094Z,26.30
2022-11-02T04:04:51.955Z,26.30
2022-11-02T04:07:29.536Z,26.30
2022-11-02T04:10:03.758Z,26.30
2022-11-02T04:12:54.857Z,26.30
2022-11-02T04:15:28.719Z,26.30
2022-11-02T04:18:21.422Z,26.30
2022-11-02T04:20:55.150Z,26.30
2022-11-02T04:23:46.300Z,26.30
2022-11-02T04:26:19.943Z,26.30
2022-11-02T04:28:54.450Z,26.30
2022-11-02T04:31:28.187Z,26.30
2022-11-02T04:34:02.502Z,26.30
2022-11-02T04:36:36.371Z,26.30
2022-11-02T04:39:08.945Z,26.30
2022-11-02T04:45:54.656Z,26.30
2022-11-02T04:49:03.485Z,26.30
2022-11-02T04:51:45.766Z,26.30
2022-11-02T04:54:23.225Z,26.30
2022-11-02T04:57:02.441Z,26.30
2022-11-02T04:59:37.400Z,26.30
2022-11-02T05:02:11.662Z,26.30
2022-11-02T05:04:45.623Z,26.30
2022-11-02T05:07:22.043Z,26.30
2022-11-02T05:09:56.825Z,26.30
2022-11-02T05:12:30.401Z,26.30
2022-11-02T05:15:06.674Z,26.30
2022-11-02T05:17:40.308Z,26.30
2022-11-02T05:20:14.760Z,26.30
2022-11-02T05:22:50.257Z,26.30
2022-11-02T05:25:26.138Z,26.30
2022-11-02T05:27:59.760Z,26.30
2022-11-02T05:30:34.147Z,26.30
2022-11-02T05:33:07.781Z,26.30
2022-11-02T05:35:41.867Z,26.30
2022-11-02T05:38:16.870Z,26.30
2022-11-02T05:40:54.658Z,26.30
2022-11-02T05:43:29.482Z,26.30
2022-11-02T05:46:06.132Z,26.30
2022-11-02T05:48:39.674Z,26.30
2022-11-02T05:51:13.222Z,26.30
2022-11-02T05:53:48.164Z,26.30
2022-11-02T05:56:25.037Z,26.30
2022-11-02T05:58:58.979Z,26.30
2022-11-02T06:01:32.825Z,26.30
2022-11-02T06:04:06.689Z,26.30
2022-11-02T06:06:40.384Z,26.30
2022-11-02T06:09:15.360Z,26.30
2022-11-02T06:11:48.892Z,26.30
2022-11-02T06:14:22.413Z,26.30
2022-11-02T06:16:55.933Z,26.30
2022-11-02T06:19:29.461Z,26.30
2022-11-02T06:22:03.157Z,26.30
2022-11-02T06:24:38.172Z,26.30
2022-11-02T06:27:11.907Z,26.30
2022-11-02T06:29:45.580Z,26.30
2022-11-02T06:32:19.437Z,26.20
2022-11-02T06:34:53.053Z,26.20
2022-11-02T06:37:26.609Z,26.20
2022-11-02T06:40:01.828Z,26.20
2022-11-02T06:42:40.478Z,26.20
2022-11-02T06:45:18.982Z,26.20
2022-11-02T06:47:52.671Z,26.20
2022-11-02T06:50:26.420Z,26.20
2022-11-02T06:53:00.016Z,26.20
2022-11-02T06:55:35.142Z,26.20
2022-11-02T06:58:08.896Z,26.20
2022-11-02T07:00:42.465Z,26.20
2022-11-02T07:03:16.147Z,26.20
2022-11-02T07:05:51.316Z,26.20
2022-11-02T07:08:24.889Z,26.20
2022-11-02T07:10:59.863Z,26.20
2022-11-02T07:13:33.559Z,26.20
2022-11-02T07:16:07.321Z,26.20
2022-11-02T07:18:41.213Z,26.20
2022-11-02T07:21:14.768Z,26.20
2022-11-02T07:23:48.365Z,26.20
2022-11-02T07:26:23.293Z,26.20
2022-11-02T07:28:59.356Z,26.20
2022-11-02T07:31:33.279Z,26.20
2022-11-02T07:34:06.959Z,26.20
2022-11-02T07:36:40.512Z,26.20
2022-11-02T07:39:14.096Z,26.20
2022-11-02T07:41:51.900Z,26.20
2022-11-02T07:44:25.713Z,26.20
2022-11-02T07:47:02.047Z,26.20
2022-11-02T07:49:35.582Z,26.20
2022-11-02T07:52:09.135Z,26.30
2022-11-02T07:54:44.725Z,26.30
2022-11-02T07:57:19.911Z,26.30
2022-11-02T07:59:53.473Z,26.20
2022-11-02T08:02:27.740Z,26.30
2022-11-02T08:05:01.641Z,26.30
2022-11-02T08:07:35.374Z,26.30
2022-11-02T08:10:09.658Z,26.30
2022-11-02T08:12:44.925Z,26.30
2022-11-02T08:15:18.658Z,26.30
2022-11-02T08:18:01.241Z,26.30
2022-11-02T08:20:36.063Z,26.30
2022-11-02T08:23:10.671Z,26.30
2022-11-02T08:25:45.889Z,26.30
2022-11-02T08:28:22.182Z,26.30
2022-11-02T08:30:55.834Z,26.30
2022-11-02T08:33:29.541Z,26.30
2022-11-02T08:36:04.311Z,26.30
2022-11-02T08:38:38.395Z,26.30
2022-11-02T08:41:12.014Z,26.30
2022-11-02T08:43:46.967Z,26.30
2022-11-02T08:46:20.633Z,26.30
2022-11-02T08:48:54.271Z,26.30
2022-11-02T08:51:27.953Z,26.30
2022-11-02T08:54:01.670Z,26.30
2022-11-02T08:56:35.403Z,26.30
2022-11-02T08:59:11.075Z,26.30
2022-11-02T09:01:45.030Z,26.30
2022-11-02T09:04:18.791Z,26.30
2022-11-02T09:06:52.566Z,26.30
2022-11-02T09:09:26.330Z,26.30
2022-11-02T09:11:59.895Z,26.30
2022-11-02T09:14:35.043Z,26.30
2022-11-02T09:17:08.762Z,26.40
2022-11-02T09:19:42.557Z,26.30
2022-11-02T09:22:16.161Z,26.40
2022-11-02T09:24:49.789Z,26.40
2022-11-02T09:28:19.447Z,26.30
2022-11-02T09:30:53.772Z,26.30
2022-11-02T09:33:29.928Z,26.20
2022-11-02T09:36:04.995Z,26.10
2022-11-02T09:38:38.852Z,26.10
2022-11-02T09:41:22.465Z,26.10
2022-11-02T09:44:04.351Z,26.00
2022-11-02T09:46:40.577Z,26.00
2022-11-02T09:49:18.349Z,26.00
2022-11-02T09:51:54.234Z,26.00
2022-11-02T09:54:31.684Z,26.00
2022-11-02T09:57:10.514Z,26.00
2022-11-02T09:59:45.865Z,26.00
2022-11-02T10:02:28.863Z,25.90
2022-11-02T10:05:19.728Z,25.90
2022-11-02T10:08:21.547Z,25.90
2022-11-02T10:11:08.252Z,25.90
2022-11-02T10:13:51.219Z,25.90
2022-11-02T10:16:36.054Z,25.90
2022-11-02T10:19:14.916Z,25.90
2022-11-02T10:21:51.746Z,25.90
2022-11-02T10:24:27.495Z,25.90
2022-11-02T10:27:04.339Z,25.90
2022-11-02T10:29:46.790Z,25.90
2022-11-02T10:32:22.203Z,25.90
2022-11-02T10:34:59.162Z,25.90
2022-11-02T10:38:09.355Z,25.90
2022-11-02T10:41:00.154Z,25.90
2022-11-02T10:43:51.805Z,25.90
2022-11-02T10:46:49.244Z,25.90
2022-11-02T10:49:47.029Z,25.90
2022-11-02T10:52:21.214Z,25.90
2022-11-02T10:54:55.931Z,25.90
2022-11-02T10:57:30.200Z,25.90
2022-11-02T11:00:39.726Z,25.90
2022-11-02T11:03:15.629Z,26.00
2022-11-02T11:06:03.536Z,26.00
2022-11-02T11:08:40.981Z,26.00
2022-11-02T11:11:22.211Z,26.10
2022-11-02T11:16:56.219Z,26.10
2022-11-02T11:22:31.787Z,26.10
2022-11-02T11:25:27.530Z,26.10
2022-11-02T11:28:02.227Z,26.10
2022-11-02T11:30:59.006Z,26.10
2022-11-02T11:33:35.141Z,26.10
2022-11-02T11:36:11.147Z,26.20
2022-11-02T11:38:50.449Z,26.20
2022-11-02T11:41:25.490Z,26.20
2022-11-02T11:44:00.212Z,26.20
2022-11-02T11:46:42.592Z,26.20
2022-11-02T11:49:35.909Z,26.20
2022-11-02T11:52:27.011Z,26.20
2022-11-02T11:55:22.996Z,26.20
2022-11-02T11:58:17.276Z,26.20
2022-11-02T12:01:10.253Z,26.20
2022-11-02T12:03:55.711Z,26.20
2022-11-02T12:06:37.992Z,26.20
2022-11-02T12:09:22.852Z,26.20
2022-11-02T12:12:06.475Z,26.20
2022-11-02T12:14:55.305Z,26.20
2022-11-02T12:17:39.455Z,26.20
2022-11-02T12:20:17.425Z,26.20
2022-11-02T12:23:00.417Z,26.20
2022-11-02T12:25:51.607Z,26.20
2022-11-02T12:28:35.703Z,26.20
2022-11-02T12:31:21.394Z,26.20
2022-11-02T12:34:15.491Z,26.20
2022-11-02T12:40:14.771Z,26.20
2022-11-02T12:42:57.307Z,26.20
2022-11-02T12:45:42.547Z,26.20
2022-11-02T12:48:24.734Z,26.20
2022-11-02T12:51:03.234Z,26.20
2022-11-02T12:53:45.422Z,26.20
2022-11-02T12:56:24.069Z,26.20
2022-11-02T12:58:58.596Z,26.20
2022-11-02T13:01:40.968Z,26.20
2022-11-02T13:04:24.544Z,26.20
2022-11-02T13:07:07.675Z,26.20
2022-11-02T13:09:51.342Z,26.20
2022-11-02T13:12:25.652Z,26.10
2022-11-02T13:15:00.544Z,26.10
2022-11-02T13:17:43.379Z,26.10
2022-11-02T13:20:21.577Z,26.10
2022-11-02T13:23:02.299Z,26.10
2022-11-02T13:25:40.660Z,26.10
2022-11-02T13:28:18.697Z,26.10
2022-11-02T13:30:54.258Z,26.10
2022-11-02T13:33:36.429Z,26.10
2022-11-02T13:36:11.128Z,26.10
2022-11-02T13:38:51.448Z,26.10
2022-11-02T13:41:47.746Z,26.00
2022-11-02T13:44:46.561Z,26.00
2022-11-02T13:47:49.512Z,26.00
2022-11-02T13:50:28.084Z,26.00
2022-11-02T13:53:05.350Z,26.00
2022-11-02T13:55:46.065Z,26.00
2022-11-02T13:58:26.484Z,26.00
2022-11-02T14:01:03.524Z,26.00
2022-11-02T14:03:50.643Z,25.90
2022-11-02T14:06:27.469Z,25.90
2022-11-02T14:09:03.973Z,25.90
2022-11-02T14:11:49.421Z,25.90
2022-11-02T14:14:25.625Z,25.90
2022-11-02T14:17:11.269Z,25.80
2022-11-02T14:19:57.030Z,25.80
2022-11-02T14:22:33.181Z,25.80
2022-11-02T14:25:18.769Z,25.80
2022-11-02T14:27:56.690Z,25.80
2022-11-02T14:30:46.107Z,25.80
2022-11-02T14:33:36.445Z,25.80
2022-11-02T14:36:19.775Z,25.80
2022-11-02T14:39:01.280Z,25.80
2022-11-02T14:41:54.538Z,25.80
2022-11-02T14:45:09.962Z,25.80
2022-11-02T14:47:44.588Z,25.70
2022-11-02T14:50:21.044Z,25.70
2022-11-02T14:52:59.754Z,25.70
2022-11-02T14:55:36.450Z,25.70
2022-11-02T14:58:18.630Z,25.70
2022-11-02T15:00:59.347Z,25.70
2022-11-02T15:03:38.176Z,25.70
2022-11-02T15:06:19.718Z,25.70
2022-11-02T15:08:56.106Z,25.70
2022-11-02T15:11:49.682Z,25.70
2022-11-02T15:14:34.120Z,25.70
2022-11-02T15:17:41.261Z,25.70
2022-11-02T15:20:33.744Z,25.70
2022-11-02T15:23:29.954Z,25.70
2022-11-02T15:26:07.649Z,25.70
2022-11-02T15:28:46.089Z,25.70
2022-11-02T15:31:26.090Z,25.60
2022-11-02T15:34:04.061Z,25.60
2022-11-02T15:36:39.301Z,25.60
2022-11-02T15:39:13.965Z,25.60
2022-11-02T15:41:55.127Z,25.60
2022-11-02T15:45:14.238Z,25.60
2022-11-02T15:48:05.826Z,25.60
2022-11-02T15:50:49.105Z,25.70
2022-11-02T15:53:41.312Z,25.70
2022-11-02T15:56:33.526Z,25.70
2022-11-02T15:59:43.153Z,25.70
2022-11-02T16:02:25.885Z,25.70
2022-11-02T16:05:03.007Z,25.80
2022-11-02T16:07:57.331Z,25.80
2022-11-02T16:10:34.696Z,25.80
2022-11-02T16:13:17.521Z,25.80
2022-11-02T16:15:51.957Z,25.80
2022-11-02T16:18:29.396Z,25.80
2022-11-02T16:21:06.381Z,25.80
2022-11-02T16:23:43.245Z,25.80
2022-11-02T16:26:22.279Z,25.80
2022-11-02T16:28:57.917Z,25.80
2022-11-02T16:31:32.260Z,25.80
2022-11-02T16:34:24.156Z,25.80
2022-11-02T16:36:59.331Z,25.80
2022-11-02T16:39:37.512Z,25.80
2022-11-02T16:42:17.666Z,25.80
2022-11-02T16:44:58.617Z,25.80
2022-11-02T16:47:41.844Z,25.80
2022-11-02T16:50:25.464Z,25.80
2022-11-02T16:53:01.626Z,25.80
2022-11-02T16:55:41.729Z,25.80
2022-11-02T16:58:20.232Z,25.80
2022-11-02T17:00:57.034Z,25.80
2022-11-02T17:03:33.285Z,25.80
2022-11-02T17:06:09.465Z,25.80
2022-11-02T17:08:45.740Z,25.80
2022-11-02T17:11:20.361Z,25.80
2022-11-02T17:13:57.152Z,25.80
2022-11-02T17:16:34.978Z,25.80
2022-11-02T17:19:51.479Z,25.80
2022-11-02T17:22:28.258Z,25.80
2022-11-02T17:25:13.590Z,25.80
2022-11-02T17:27:48.043Z,25.80
2022-11-02T17:30:44.822Z,25.80
2022-11-02T17:33:25.915Z,25.80
2022-11-02T17:36:11.492Z,25.80
2022-11-02T17:38:47.284Z,25.80
2022-11-02T17:41:38.926Z,25.80
2022-11-02T17:44:17.802Z,25.80
2022-11-02T17:46:51.869Z,25.80
2022-11-02T17:49:25.912Z,25.80
2022-11-02T17:52:00.033Z,25.80
2022-11-02T17:54:35.326Z,25.90
2022-11-02T17:57:14.396Z,25.90
2022-11-02T17:59:48.443Z,25.90
2022-11-02T18:02:22.643Z,25.90
2022-11-02T18:04:56.596Z,25.90
2022-11-02T18:07:30.546Z,25.90
2022-11-02T18:10:06.291Z,25.90
2022-11-02T18:12:40.121Z,25.90
2022-11-02T18:15:16.621Z,25.90
2022-11-02T18:17:51.050Z,25.90
2022-11-02T18:20:27.530Z,25.90
2022-11-02T18:23:02.294Z,25.80
2022-11-02T18:25:37.683Z,25.90
2022-11-02T18:28:11.529Z,25.90
2022-11-02T18:30:45.639Z,25.80
2022-11-02T18:33:19.517Z,25.80
2022-11-02T18:35:53.458Z,25.80
2022-11-02T18:38:27.516Z,25.80
2022-11-02T18:41:26.738Z,25.80
2022-11-02T18:44:06.573Z,25.80
2022-11-02T18:46:42.949Z,25.80
2022-11-02T18:49:16.804Z,25.80
2022-11-02T18:51:50.497Z,25.80
2022-11-02T18:54:24.867Z,25.80
2022-11-02T18:57:00.106Z,25.80
2022-11-02T18:59:34.548Z,25.80
2022-11-02T19:02:08.646Z,25.80
2022-11-02T19:04:42.760Z,25.80
2022-11-02T19:07:34.131Z,25.80
2022-11-02T19:10:08.579Z,25.80
2022-11-02T19:12:44.109Z,25.80
2022-11-02T19:15:18.445Z,25.80
2022-11-02T19:17:52.529Z,25.80
2022-11-02T19:20:27.706Z,25.80
2022-11-02T19:23:01.766Z,25.80
2022-11-02T19:25:36.196Z,25.80
2022-11-02T19:28:13.096Z,25.80
2022-11-02T19:30:47.597Z,25.80
2022-11-02T19:33:21.830Z,25.80
2022-11-02T19:35:56.775Z,25.80
2022-11-02T19:38:30.894Z,25.80
2022-11-02T19:41:06.421Z,25.80
2022-11-02T19:43:44.499Z,25.80
2022-11-02T19:46:20.289Z,25.80
2022-11-02T19:48:54.908Z,25.80
2022-11-02T19:51:30.369Z,25.80
2022-11-02T19:54:05.067Z,25.80
2022-11-02T19:56:39.404Z,25.80
2022-11-02T19:59:14.882Z,25.80
2022-11-02T20:01:50.759Z,25.80
2022-11-02T20:04:24.821Z,25.80
2022-11-02T20:06:59.877Z,25.80
2022-11-02T20:09:33.770Z,25.80
2022-11-02T20:12:08.547Z,25.80
2022-11-02T20:14:43.985Z,25.80
2022-11-02T20:17:31.236Z,25.80
2022-11-02T20:20:10.078Z,25.80
2022-11-02T20:22:45.223Z,25.80
2022-11-02T20:25:19.278Z,25.80
2022-11-02T20:27:53.534Z,25.80
2022-11-02T20:30:29.254Z,25.80
2022-11-02T20:33:03.489Z,25.80
2022-11-02T20:35:39.115Z,25.80
2022-11-02T20:38:13.049Z,25.80
2022-11-02T20:40:46.984Z,25.80
2022-11-02T20:43:21.104Z,25.80
2022-11-02T20:46:35.897Z,25.80
2022-11-02T20:49:08.585Z,25.80
2022-11-02T20:51:54.711Z,25.80
2022-11-02T20:54:30.107Z,25.80
2022-11-02T20:57:04.113Z,25.80
2022-11-02T20:59:38.163Z,25.80
2022-11-02T21:02:13.876Z,25.80
2022-11-02T21:04:48.103Z,25.80
2022-11-02T21:07:22.113Z,25.80
2022-11-02T21:09:56.326Z,25.80
2022-11-02T21:12:47.728Z,25.80
2022-11-02T21:15:21.849Z,25.80
2022-11-02T21:17:57.358Z,25.80
2022-11-02T21:20:34.720Z,25.80
2022-11-02T21:23:09.743Z,25.80
2022-11-02T21:25:43.733Z,25.80
2022-11-02T21:28:17.802Z,25.80
2022-11-02T21:30:51.823Z,25.80
2022-11-02T21:33:27.334Z,25.80
2022-11-02T21:36:02.679Z,25.80
2022-11-02T21:38:37.228Z,25.80
2022-11-02T21:41:11.614Z,25.80
2022-11-02T21:43:45.979Z,25.80
2022-11-02T21:46:20.852Z,25.80
2022-11-02T21:48:56.884Z,25.80
2022-11-02T21:51:31.603Z,25.80
2022-11-02T21:54:05.760Z,25.80
2022-11-02T21:56:40.117Z,25.80
2022-11-02T21:59:14.044Z,25.80
2022-11-02T22:01:49.042Z,25.90
2022-11-02T22:04:28.533Z,25.80
2022-11-02T22:07:03.766Z,25.90
2022-11-02T22:09:37.772Z,25.90
2022-11-02T22:12:29.126Z,25.90
2022-11-02T22:15:03.304Z,25.90
2022-11-02T22:17:49.663Z,25.90
2022-11-02T22:20:25.696Z,25.90
2022-11-02T22:22:59.818Z,25.90
2022-11-02T22:25:33.831Z,25.90
2022-11-02T22:28:07.859Z,25.90
2022-11-02T22:30:41.954Z,25.90
2022-11-02T22:33:16.048Z,25.90
2022-11-02T22:35:51.371Z,25.90
2022-11-02T22:38:42.995Z,25.90
2022-11-02T22:41:17.177Z,25.90
2022-11-02T22:43:52.796Z,25.90
2022-11-02T22:46:28.280Z,25.90
2022-11-02T22:49:04.865Z,25.90
2022-11-02T22:51:42.092Z,25.90
2022-11-02T22:54:17.320Z,25.90
2022-11-02T22:56:51.415Z,25.90
2022-11-02T22:59:25.546Z,25.90
2022-11-02T23:01:59.629Z,25.90
2022-11-02T23:04:34.286Z,25.90
2022-11-02T23:07:10.902Z,25.90
2022-11-02T23:09:45.061Z,25.90
2022-11-02T23:12:18.509Z,26.00
2022-11-02T23:14:53.042Z,26.00
2022-11-02T23:17:27.349Z,26.00
2022-11-02T23:20:00.568Z,26.00
2022-11-02T23:22:53.605Z,26.00
2022-11-02T23:25:27.584Z,26.00
2022-11-02T23:28:19.104Z,26.00
2022-11-02T23:31:13.915Z,25.90
2022-11-02T23:33:47.899Z,25.90
2022-11-02T23:36:21.298Z,25.90
2022-11-02T23:39:14.389Z,25.90
2022-11-02T23:41:48.550Z,25.90
2022-11-02T23:44:22.746Z,25.90
2022-11-02T23:46:56.604Z,25.90
2022-11-02T23:49:30.618Z,25.90
2022-11-02T23:52:22.134Z,25.90
2022-11-02T23:55:15.114Z,25.90
2022-11-02T23:57:49.042Z,25.90
